Time;durP1;ratioP1;P1;durP2;ratioP2;P2;SDS_P1;SDS_P2;PMS_P1;PMS_P2;Temp;Humidity;BMP_temperature;BMP_pressure;BME280_temperature;BME280_humidity;BME280_pressure;Samples;Min_cycle;Max_cycle;Signal;HPM_P1;HPM_P2
2022/05/20 00:00:04;;;;;;;4.38;2.55;;;;;;;;;;5031581;28;20034;-68
2022/05/20 00:02:30;;;;;;;3.97;2.15;;;;;;;;;;5031229;28;20083;-68
2022/05/20 00:04:56;;;;;;;6.70;2.72;;;;;;;;;;5031542;28;20029;-67
2022/05/20 00:07:22;;;;;;;4.15;2.20;;;;;;;;;;5031306;28;20018;-68
2022/05/20 00:09:48;;;;;;;7.07;2.88;;;;;;;;;;5031544;28;20017;-68
2022/05/20 00:12:14;;;;;;;5.47;2.22;;;;;;;;;;5031446;28;20112;-68
2022/05/20 00:14:40;;;;;;;5.38;2.70;;;;;;;;;;5031223;28;20036;-69
2022/05/20 00:17:06;;;;;;;8.13;2.17;;;;;;;;;;5013166;28;20033;-69
2022/05/20 00:19:33;;;;;;;5.75;2.72;;;;;;;;;;5031249;28;20084;-69
2022/05/20 00:21:59;;;;;;;3.42;2.80;;;;;;;;;;5031293;28;20091;-69
2022/05/20 00:24:25;;;;;;;7.47;2.60;;;;;;;;;;5013627;28;20376;-69
2022/05/20 00:26:51;;;;;;;4.47;3.22;;;;;;;;;;5027053;28;20092;-69
2022/05/20 00:29:17;;;;;;;4.13;2.70;;;;;;;;;;5015379;28;20075;-70
2022/05/20 00:31:43;;;;;;;4.95;2.45;;;;;;;;;;5013021;28;20021;-68
2022/05/20 00:34:09;;;;;;;4.60;2.45;;;;;;;;;;5017275;28;20435;-68
2022/05/20 00:36:35;;;;;;;9.40;4.40;;;;;;;;;;5026044;28;20549;-68
2022/05/20 00:39:01;;;;;;;6.55;2.88;;;;;;;;;;5013088;28;20033;-68
2022/05/20 00:41:27;;;;;;;4.40;2.72;;;;;;;;;;5031088;28;20151;-68
2022/05/20 00:43:53;;;;;;;2.60;2.40;;;;;;;;;;5030982;28;20022;-68
2022/05/20 00:46:21;;;;;;;6.05;3.13;;;;;;;;;;5013480;28;20025;-69
2022/05/20 00:48:48;;;;;;;4.13;3.05;;;;;;;;;;5030934;28;20024;-69
2022/05/20 00:51:32;;;;;;;3.00;2.55;;;;;;;;;;5030899;28;20446;-69
2022/05/20 00:54:03;;;;;;;8.43;2.85;;;;;;;;;;5031006;28;20079;-69
2022/05/20 00:56:45;;;;;;;3.10;2.70;;;;;;;;;;5031030;28;20025;-68
2022/05/20 00:59:16;;;;;;;3.50;2.90;;;;;;;;;;5012928;28;20034;-68
2022/05/20 01:01:42;;;;;;;;;;;;;;;;;;5031275;28;20029;-68
2022/05/20 01:04:08;;;;;;;5.45;2.50;;;;;;;;;;5013211;28;19916;-68
2022/05/20 01:06:34;;;;;;;4.45;2.95;;;;;;;;;;5031017;28;20068;-69
2022/05/20 01:09:00;;;;;;;6.40;2.45;;;;;;;;;;5034256;28;20564;-68
2022/05/20 01:11:26;;;;;;;3.88;2.60;;;;;;;;;;5034417;28;20383;-69
2022/05/20 01:13:53;;;;;;;7.05;3.42;;;;;;;;;;5034545;28;20128;-69
2022/05/20 01:16:19;;;;;;;7.90;2.72;;;;;;;;;;5016431;28;20033;-69
2022/05/20 01:18:46;;;;;;;7.68;2.55;;;;;;;;;;5034242;28;20114;-68
2022/05/20 01:21:13;;;;;;;5.75;2.85;;;;;;;;;;5034314;28;20021;-69
2022/05/20 01:23:39;;;;;;;5.57;2.95;;;;;;;;;;5034156;28;20021;-69
2022/05/20 01:26:06;;;;;;;6.45;3.05;;;;;;;;;;5034163;28;20493;-69
2022/05/20 01:28:33;;;;;;;5.97;2.90;;;;;;;;;;5034224;28;20097;-68
2022/05/20 01:31:03;;;;;;;4.00;2.75;;;;;;;;;;5034014;28;20026;-67
2022/05/20 01:33:32;;;;;;;4.28;2.80;;;;;;;;;;5023128;28;20041;-68
2022/05/20 01:35:59;;;;;;;4.78;2.85;;;;;;;;;;5034027;28;20485;-68
2022/05/20 01:38:25;;;;;;;6.40;3.05;;;;;;;;;;5033476;28;20051;-68
2022/05/20 01:40:56;;;;;;;4.22;2.70;;;;;;;;;;5016134;28;20029;-69
2022/05/20 01:43:25;;;;;;;3.90;2.95;;;;;;;;;;5033785;28;20100;-69
2022/05/20 01:45:54;;;;;;;5.13;2.72;;;;;;;;;;5033793;28;20068;-69
2022/05/20 01:48:30;;;;;;;5.47;2.55;;;;;;;;;;5033506;28;20391;-69
2022/05/20 01:50:56;;;;;;;3.30;2.47;;;;;;;;;;5033587;28;20487;-69
2022/05/20 01:53:28;;;;;;;2.95;2.63;;;;;;;;;;5033655;28;20021;-69
2022/05/20 01:56:06;;;;;;;4.05;2.72;;;;;;;;;;5033839;28;20036;-67
2022/05/20 01:58:58;;;;;;;6.43;2.88;;;;;;;;;;5033470;28;20029;-69
2022/05/20 02:01:27;;;;;;;5.18;2.90;;;;;;;;;;5003824;28;20478;-69
2022/05/20 02:03:58;;;;;;;5.45;2.95;;;;;;;;;;5065433;22;20076;-68
2022/05/20 02:06:28;;;;;;;7.13;3.17;;;;;;;;;;5021800;28;20120;-69
2022/05/20 02:09:09;;;;;;;3.72;2.88;;;;;;;;;;5049597;28;20017;-69
2022/05/20 02:11:40;;;;;;;3.38;3.08;;;;;;;;;;5040266;28;20091;-70
2022/05/20 02:14:09;;;;;;;4.45;3.22;;;;;;;;;;5042234;28;20398;-70
2022/05/20 02:16:37;;;;;;;6.30;2.80;;;;;;;;;;5030366;28;20029;-69
2022/05/20 02:19:08;;;;;;;4.88;3.03;;;;;;;;;;5035738;28;20199;-70
2022/05/20 02:21:36;;;;;;;6.18;2.95;;;;;;;;;;5047149;28;20167;-69
2022/05/20 02:24:04;;;;;;;4.28;3.00;;;;;;;;;;5043536;28;20033;-70
2022/05/20 02:26:33;;;;;;;5.50;3.25;;;;;;;;;;5038757;28;20078;-70
2022/05/20 02:29:01;;;;;;;5.57;3.38;;;;;;;;;;5048996;28;20032;-69
2022/05/20 02:31:34;;;;;;;5.18;3.45;;;;;;;;;;5038396;28;20018;-69
2022/05/20 02:34:00;;;;;;;5.90;3.10;;;;;;;;;;5040415;28;20025;-68
2022/05/20 02:36:34;;;;;;;4.50;3.38;;;;;;;;;;5047314;28;20024;-69
2022/05/20 02:39:02;;;;;;;5.03;3.75;;;;;;;;;;5035915;28;20029;-69
2022/05/20 02:41:28;;;;;;;3.45;2.97;;;;;;;;;;5047042;28;20282;-68
2022/05/20 02:43:54;;;;;;;5.00;3.33;;;;;;;;;;5039070;28;20017;-69
2022/05/20 02:46:20;;;;;;;6.15;3.22;;;;;;;;;;5045854;28;20374;-68
2022/05/20 02:48:46;;;;;;;5.55;3.33;;;;;;;;;;5035929;28;20100;-69
2022/05/20 02:51:12;;;;;;;6.95;3.20;;;;;;;;;;5027886;28;20024;-69
2022/05/20 02:53:38;;;;;;;5.63;3.40;;;;;;;;;;5044817;28;20380;-68
2022/05/20 02:56:04;;;;;;;5.43;3.35;;;;;;;;;;5041627;28;20032;-68
2022/05/20 03:04:10;;;;;;;7.90;3.70;;;;;;;;;;5041652;28;20048;-68
2022/05/20 03:06:37;;;;;;;4.28;3.28;;;;;;;;;;5047322;28;20053;-69
2022/05/20 03:09:04;;;;;;;148.68;98.95;;;;;;;;;;5034686;28;20026;-69
2022/05/20 03:11:30;;;;;;;8.10;4.60;;;;;;;;;;5045777;28;20018;-69
2022/05/20 03:13:56;;;;;;;113.35;66.40;;;;;;;;;;5041649;28;20523;-69
2022/05/20 03:16:21;;;;;;;29.95;14.85;;;;;;;;;;5038689;28;20063;-68
2022/05/20 03:18:47;;;;;;;33.97;19.92;;;;;;;;;;5047630;28;20029;-68
2022/05/20 03:21:14;;;;;;;7.10;4.20;;;;;;;;;;5017856;28;20021;-68
2022/05/20 03:23:40;;;;;;;28.90;16.08;;;;;;;;;;5044620;28;20045;-68
2022/05/20 03:26:06;;;;;;;20.65;9.38;;;;;;;;;;5042745;28;20383;-68
2022/05/20 03:28:34;;;;;;;5.43;4.13;;;;;;;;;;5036608;28;20025;-69
2022/05/20 03:31:04;;;;;;;186.30;92.78;;;;;;;;;;5048097;28;20025;-69
2022/05/20 03:33:29;;;;;;;45.22;20.23;;;;;;;;;;5038170;28;20056;-68
2022/05/20 03:35:55;;;;;;;8.73;5.35;;;;;;;;;;5042472;28;20053;-69
2022/05/20 03:38:21;;;;;;;4.97;3.50;;;;;;;;;;5044417;28;20036;-69
2022/05/20 03:40:47;;;;;;;7.00;3.05;;;;;;;;;;5035101;28;20036;-69
2022/05/20 03:43:13;;;;;;;9.63;3.90;;;;;;;;;;5047670;28;20198;-68
2022/05/20 03:45:42;;;;;;;9.32;4.30;;;;;;;;;;5038481;28;20024;-69
2022/05/20 03:48:09;;;;;;;4.30;3.45;;;;;;;;;;5021562;28;20025;-69
2022/05/20 03:50:35;;;;;;;6.75;4.03;;;;;;;;;;5046758;28;20021;-69
2022/05/20 03:53:01;;;;;;;2.92;2.30;;;;;;;;;;5034750;28;20025;-69
2022/05/20 03:55:27;;;;;;;6.55;2.85;;;;;;;;;;5046127;28;20447;-69
2022/05/20 03:57:53;;;;;;;2.88;2.22;;;;;;;;;;5040543;28;20119;-70
2022/05/20 04:00:19;;;;;;;9.23;2.58;;;;;;;;;;5039488;28;20029;-70
2022/05/20 04:02:45;;;;;;;4.35;2.20;;;;;;;;;;5048929;28;20036;-69
2022/05/20 04:05:11;;;;;;;5.28;2.17;;;;;;;;;;5019916;28;20025;-69
2022/05/20 04:07:38;;;;;;;4.32;1.65;;;;;;;;;;5044217;28;20049;-69
2022/05/20 04:10:05;;;;;;;3.88;1.90;;;;;;;;;;5024641;28;20017;-70
2022/05/20 04:12:37;;;;;;;3.90;2.00;;;;;;;;;;5036601;28;20052;-69
2022/05/20 04:15:03;;;;;;;5.07;1.98;;;;;;;;;;5048275;28;20028;-70
2022/05/20 04:17:30;;;;;;;5.00;1.98;;;;;;;;;;5036667;28;20175;-69
2022/05/20 04:19:55;;;;;;;5.88;1.90;;;;;;;;;;5041799;28;20155;-69
2022/05/20 04:22:26;;;;;;;3.50;1.75;;;;;;;;;;5044292;28;20522;-69
2022/05/20 04:24:52;;;;;;;5.77;1.70;;;;;;;;;;5034672;28;20041;-69
2022/05/20 04:27:18;;;;;;;2.92;1.58;;;;;;;;;;5045778;28;20029;-69
2022/05/20 04:29:44;;;;;;;4.47;1.45;;;;;;;;;;5039018;28;20021;-70
2022/05/20 04:32:10;;;;;;;3.22;1.45;;;;;;;;;;5021380;28;20033;-70
2022/05/20 04:34:36;;;;;;;2.13;1.50;;;;;;;;;;5028575;28;20498;-70
2022/05/20 04:37:02;;;;;;;2.53;1.33;;;;;;;;;;5034685;28;20042;-68
2022/05/20 04:39:28;;;;;;;2.63;1.48;;;;;;;;;;5044925;28;20026;-69
2022/05/20 04:47:26;;;;;;;1.55;1.35;;;;;;;;;;5025084;28;20051;-70
2022/05/20 04:49:52;;;;;;;2.05;1.42;;;;;;;;;;5027655;28;20057;-69
2022/05/20 04:52:19;;;;;;;3.00;1.40;;;;;;;;;;5047703;28;20017;-69
2022/05/20 04:54:51;;;;;;;6.43;1.63;;;;;;;;;;5038543;28;20026;-70
2022/05/20 04:57:20;;;;;;;5.13;1.90;;;;;;;;;;5021988;28;20119;-70
2022/05/20 04:59:46;;;;;;;1.50;1.35;;;;;;;;;;5045750;28;20069;-70
2022/05/20 05:02:13;;;;;;;3.17;1.38;;;;;;;;;;5026880;28;20064;-70
2022/05/20 05:04:39;;;;;;;3.80;1.40;;;;;;;;;;5020124;28;20025;-69
2022/05/20 05:07:09;;;;;;;5.72;2.05;;;;;;;;;;5038655;28;20026;-68
2022/05/20 05:09:35;;;;;;;2.30;1.60;;;;;;;;;;5046671;28;20048;-70
2022/05/20 05:12:03;;;;;;;2.92;1.25;;;;;;;;;;5044286;28;20021;-70
2022/05/20 05:14:29;;;;;;;2.38;1.35;;;;;;;;;;5040634;28;20041;-70
2022/05/20 05:16:55;;;;;;;2.03;1.08;;;;;;;;;;5033912;28;20029;-70
2022/05/20 05:19:21;;;;;;;3.88;1.35;;;;;;;;;;5034207;28;20104;-70
2022/05/20 05:21:47;;;;;;;2.28;1.33;;;;;;;;;;5042791;28;20075;-70
2022/05/20 05:24:13;;;;;;;2.40;1.88;;;;;;;;;;5041836;28;20552;-69
2022/05/20 05:26:42;;;;;;;6.03;1.80;;;;;;;;;;5049423;28;20025;-70
2022/05/20 05:29:08;;;;;;;2.95;1.58;;;;;;;;;;5019204;28;20333;-70
2022/05/20 05:31:34;;;;;;;4.35;1.45;;;;;;;;;;5047698;28;20024;-70
2022/05/20 05:34:00;;;;;;;2.13;1.80;;;;;;;;;;5043721;28;20029;-71
2022/05/20 05:36:26;;;;;;;4.18;1.92;;;;;;;;;;5022296;28;20026;-70
2022/05/20 05:38:52;;;;;;;2.60;1.90;;;;;;;;;;5043427;28;20025;-70
2022/05/20 05:41:19;;;;;;;3.90;2.53;;;;;;;;;;5037884;28;20447;-70
2022/05/20 05:43:45;;;;;;;3.75;1.90;;;;;;;;;;5043376;28;20494;-70
2022/05/20 05:46:11;;;;;;;3.45;2.00;;;;;;;;;;5046491;28;20075;-72
2022/05/20 05:48:37;;;;;;;4.47;3.15;;;;;;;;;;5037363;28;20030;-70
2022/05/20 05:51:03;;;;;;;3.63;3.17;;;;;;;;;;5034775;28;20017;-70
2022/05/20 05:53:29;;;;;;;5.18;2.60;;;;;;;;;;5031896;28;20021;-69
2022/05/20 05:55:58;;;;;;;4.43;3.10;;;;;;;;;;5020000;28;20036;-71
2022/05/20 05:58:25;;;;;;;4.38;2.40;;;;;;;;;;5046585;28;20024;-71
2022/05/20 06:00:51;;;;;;;3.40;2.38;;;;;;;;;;5036284;28;20038;-70
2022/05/20 06:03:17;;;;;;;3.22;2.30;;;;;;;;;;5028161;28;20029;-70
2022/05/20 06:05:44;;;;;;;3.03;2.03;;;;;;;;;;5029847;28;20494;-69
2022/05/20 06:08:10;;;;;;;3.63;2.22;;;;;;;;;;5034817;28;20025;-68
2022/05/20 06:10:36;;;;;;;3.42;2.35;;;;;;;;;;5048359;28;20391;-68
2022/05/20 06:13:02;;;;;;;4.72;2.65;;;;;;;;;;5036462;28;20029;-69
2022/05/20 06:15:28;;;;;;;7.18;2.53;;;;;;;;;;5047238;28;20101;-69
2022/05/20 06:17:58;;;;;;;5.18;2.50;;;;;;;;;;5042123;28;20016;-69
2022/05/20 06:20:25;;;;;;;2.92;2.30;;;;;;;;;;5039660;28;20022;-68
2022/05/20 06:22:51;;;;;;;6.47;2.85;;;;;;;;;;5049301;28;20083;-69
2022/05/20 06:25:17;;;;;;;4.75;3.25;;;;;;;;;;5037327;28;20426;-69
2022/05/20 06:27:44;;;;;;;6.20;3.20;;;;;;;;;;5044545;28;20041;-69
2022/05/20 06:30:12;;;;;;;5.57;3.40;;;;;;;;;;5038795;28;20184;-68
2022/05/20 06:32:38;;;;;;;6.45;3.35;;;;;;;;;;5043920;28;20020;-69
2022/05/20 06:40:36;;;;;;;6.10;2.95;;;;;;;;;;5029293;28;20083;-78
2022/05/20 06:43:04;;;;;;;5.20;3.40;;;;;;;;;;5040706;28;20072;-77
2022/05/20 06:45:31;;;;;;;6.65;3.92;;;;;;;;;;5043216;28;20460;-76
2022/05/20 06:47:58;;;;;;;5.10;3.63;;;;;;;;;;5034352;28;20033;-72
2022/05/20 06:50:24;;;;;;;5.93;3.42;;;;;;;;;;5051090;28;20091;-72
2022/05/20 06:52:50;;;;;;;6.85;3.30;;;;;;;;;;5044587;28;20752;-72
2022/05/20 06:55:16;;;;;;;9.80;3.45;;;;;;;;;;5030386;28;20105;-73
2022/05/20 06:57:42;;;;;;;3.17;2.67;;;;;;;;;;5011587;28;20024;-72
2022/05/20 07:00:11;;;;;;;4.00;3.30;;;;;;;;;;5030481;28;20468;-71
2022/05/20 07:02:37;;;;;;;4.78;3.17;;;;;;;;;;5030483;28;20038;-71
2022/05/20 07:05:04;;;;;;;9.23;3.40;;;;;;;;;;5012123;28;20072;-72
2022/05/20 07:07:31;;;;;;;7.07;4.15;;;;;;;;;;5030953;28;20484;-71
2022/05/20 07:09:57;;;;;;;6.40;4.72;;;;;;;;;;5014507;28;20037;-72
2022/05/20 07:12:23;;;;;;;8.15;5.72;;;;;;;;;;5014673;28;20321;-72
2022/05/20 07:14:48;;;;;;;4.88;3.78;;;;;;;;;;5032278;28;20467;-73
2022/05/20 07:17:18;;;;;;;6.93;4.70;;;;;;;;;;5031837;28;20461;-72
2022/05/20 07:19:45;;;;;;;7.65;4.28;;;;;;;;;;5032215;28;20018;-72
2022/05/20 07:22:11;;;;;;;8.23;4.18;;;;;;;;;;5032086;28;20392;-72
2022/05/20 07:24:37;;;;;;;7.65;4.70;;;;;;;;;;5032356;28;20025;-73
2022/05/20 07:27:04;;;;;;;9.50;4.70;;;;;;;;;;5032098;28;20034;-71
2022/05/20 07:29:30;;;;;;;6.38;4.55;;;;;;;;;;5032112;28;20387;-73
2022/05/20 07:31:56;;;;;;;8.63;4.35;;;;;;;;;;5031817;28;20108;-72
2022/05/20 07:34:22;;;;;;;8.55;4.40;;;;;;;;;;5031631;28;20460;-73
2022/05/20 07:36:48;;;;;;;8.02;5.15;;;;;;;;;;5029657;28;20414;-72
2022/05/20 07:39:14;;;;;;;7.43;5.43;;;;;;;;;;5029876;28;20414;-73
2022/05/20 07:41:41;;;;;;;5.55;4.25;;;;;;;;;;5030036;28;20396;-73
2022/05/20 07:44:07;;;;;;;8.55;5.18;;;;;;;;;;5028215;28;20017;-73
2022/05/20 07:46:33;;;;;;;5.65;4.13;;;;;;;;;;5028590;28;20184;-72
2022/05/20 07:48:59;;;;;;;5.65;4.03;;;;;;;;;;5027864;28;20052;-71
2022/05/20 07:51:27;;;;;;;6.72;4.50;;;;;;;;;;5029020;28;20506;-73
2022/05/20 07:53:54;;;;;;;7.75;4.43;;;;;;;;;;5031171;28;20055;-72
2022/05/20 07:56:23;;;;;;;9.02;4.85;;;;;;;;;;5013692;28;20032;-72
2022/05/20 07:58:50;;;;;;;7.45;4.10;;;;;;;;;;5030425;28;20014;-73
2022/05/20 08:01:18;;;;;;;5.75;4.55;;;;;;;;;;5031665;28;20112;-72
2022/05/20 08:06:29;;;;;;;8.90;6.15;;;;;;;;;;5011507;28;20412;-71
2022/05/20 08:08:56;;;;;;;8.38;5.22;;;;;;;;;;5011285;28;20030;-70
2022/05/20 08:11:22;;;;;;;8.02;5.78;;;;;;;;;;5011421;28;20480;-70
2022/05/20 08:13:50;;;;;;;6.57;4.57;;;;;;;;;;5011616;28;20088;-71
2022/05/20 08:16:16;;;;;;;9.63;4.80;;;;;;;;;;5011703;28;20040;-70
2022/05/20 08:18:42;;;;;;;6.75;5.75;;;;;;;;;;5015087;28;20034;-70
2022/05/20 08:21:08;;;;;;;7.25;4.28;;;;;;;;;;5015556;28;20034;-70
2022/05/20 08:23:34;;;;;;;4.90;4.35;;;;;;;;;;5015545;28;20037;-70
2022/05/20 08:26:00;;;;;;;5.35;3.47;;;;;;;;;;5015611;28;20026;-70
2022/05/20 08:28:26;;;;;;;9.95;5.47;;;;;;;;;;5015192;28;20084;-70
2022/05/20 08:30:52;;;;;;;7.88;4.65;;;;;;;;;;5015438;28;20014;-70
2022/05/20 08:33:18;;;;;;;7.10;4.55;;;;;;;;;;5015344;28;20249;-70
2022/05/20 08:35:44;;;;;;;4.80;3.92;;;;;;;;;;5014875;28;20095;-70
2022/05/20 08:38:10;;;;;;;4.40;3.80;;;;;;;;;;5014970;28;20030;-70
2022/05/20 08:40:42;;;;;;;6.68;3.97;;;;;;;;;;5015600;28;20037;-71
2022/05/20 08:43:09;;;;;;;4.88;3.20;;;;;;;;;;5015198;28;20101;-70
2022/05/20 08:45:35;;;;;;;8.68;3.47;;;;;;;;;;5015239;28;20022;-70
2022/05/20 08:48:04;;;;;;;5.15;3.35;;;;;;;;;;5015004;28;20041;-70
2022/05/20 08:50:36;;;;;;;8.95;3.25;;;;;;;;;;5014962;28;20076;-68
2022/05/20 08:53:02;;;;;;;4.75;3.92;;;;;;;;;;5001027;28;20074;-68
2022/05/20 08:55:28;;;;;;;6.70;3.58;;;;;;;;;;5005223;28;20418;-68
2022/05/20 08:57:57;;;;;;;7.93;4.05;;;;;;;;;;5012649;28;20080;-70
2022/05/20 09:00:23;;;;;;;3.78;3.35;;;;;;;;;;5014870;28;20504;-68
2022/05/20 09:02:49;;;;;;;5.55;3.70;;;;;;;;;;5014740;28;20036;-68
2022/05/20 09:05:19;;;;;;;5.15;3.17;;;;;;;;;;5014783;28;20018;-71
2022/05/20 09:07:59;;;;;;;5.13;3.58;;;;;;;;;;5014401;28;20441;-69
2022/05/20 09:10:33;;;;;;;6.10;2.90;;;;;;;;;;5015015;28;20025;-69
2022/05/20 09:13:10;;;;;;;4.95;3.40;;;;;;;;;;5014678;28;20045;-70
2022/05/20 09:15:46;;;;;;;4.18;3.05;;;;;;;;;;5014509;28;20025;-70
2022/05/20 09:18:41;;;;;;;4.63;2.50;;;;;;;;;;5013401;28;20524;-70
2022/05/20 09:21:09;;;;;;;5.07;2.97;;;;;;;;;;4997895;28;20386;-71
2022/05/20 09:23:48;;;;;;;8.30;2.92;;;;;;;;;;5014142;28;20112;-70
2022/05/20 09:26:16;;;;;;;7.70;3.47;;;;;;;;;;5014309;28;20041;-71
2022/05/20 09:28:46;;;;;;;5.38;3.03;;;;;;;;;;5013238;28;20017;-70
2022/05/20 09:31:12;;;;;;;6.90;2.95;;;;;;;;;;5014608;28;20464;-69
2022/05/20 09:33:38;;;;;;;6.50;2.72;;;;;;;;;;5013971;28;20484;-69
2022/05/20 09:36:05;;;;;;;3.58;2.88;;;;;;;;;;5014163;28;20056;-70
2022/05/20 09:38:36;;;;;;;4.78;2.42;;;;;;;;;;5013380;28;20030;-70
2022/05/20 09:41:10;;;;;;;4.47;2.72;;;;;;;;;;5014402;28;20052;-69
2022/05/20 09:43:39;;;;;;;4.47;2.33;;;;;;;;;;5014175;28;20084;-70
2022/05/20 09:46:06;;;;;;;6.18;3.10;;;;;;;;;;4996189;28;20499;-70
2022/05/20 09:48:47;;;;;;;3.17;2.85;;;;;;;;;;4995588;28;20492;-70
2022/05/20 09:51:21;;;;;;;4.55;3.17;;;;;;;;;;5012705;28;20068;-69
2022/05/20 09:54:05;;;;;;;5.43;3.60;;;;;;;;;;4995908;28;20029;-70
2022/05/20 09:56:33;;;;;;;7.78;3.00;;;;;;;;;;5013899;28;20030;-70
2022/05/20 09:59:13;;;;;;;5.20;3.38;;;;;;;;;;5006676;28;20026;-72
2022/05/20 10:01:40;;;;;;;4.90;3.13;;;;;;;;;;5014392;28;20021;-69
2022/05/20 10:04:08;;;;;;;6.95;3.63;;;;;;;;;;5013712;28;20041;-69
2022/05/20 10:06:38;;;;;;;5.57;3.38;;;;;;;;;;5013857;28;20029;-69
2022/05/20 10:09:06;;;;;;;3.78;2.50;;;;;;;;;;5013361;28;20029;-70
2022/05/20 10:11:38;;;;;;;3.92;2.65;;;;;;;;;;5013579;28;20030;-71
2022/05/20 10:14:13;;;;;;;5.38;2.67;;;;;;;;;;5013486;28;20400;-71
2022/05/20 10:16:45;;;;;;;2.55;2.03;;;;;;;;;;5013118;28;20034;-69
2022/05/20 10:19:11;;;;;;;2.85;2.55;;;;;;;;;;5013188;28;20110;-71
2022/05/20 10:21:56;;;;;;;4.03;2.70;;;;;;;;;;4995798;28;20049;-71
2022/05/20 10:24:41;;;;;;;11.10;3.55;;;;;;;;;;5013486;28;20038;-72
2022/05/20 10:27:25;;;;;;;3.92;2.97;;;;;;;;;;4993145;28;20053;-71
2022/05/20 10:32:47;;;;;;;3.50;3.20;;;;;;;;;;4993878;28;20028;-71
2022/05/20 10:35:21;;;;;;;4.32;2.58;;;;;;;;;;4976076;28;20026;-71
2022/05/20 10:37:56;;;;;;;3.65;2.90;;;;;;;;;;5008370;28;20045;-71
2022/05/20 10:40:25;;;;;;;4.13;3.00;;;;;;;;;;5012183;28;20421;-71
2022/05/20 10:43:03;;;;;;;5.60;3.25;;;;;;;;;;4997498;28;20402;-71
2022/05/20 10:48:34;;;;;;;6.25;2.85;;;;;;;;;;4993314;28;20041;-71
2022/05/20 10:51:07;;;;;;;36.28;5.40;;;;;;;;;;4993273;28;20018;-70
2022/05/20 10:53:46;;;;;;;6.28;2.97;;;;;;;;;;4993310;28;20034;-70
2022/05/20 10:56:18;;;;;;;5.65;3.08;;;;;;;;;;4993092;28;20042;-70
2022/05/20 10:58:55;;;;;;;5.50;2.80;;;;;;;;;;4983732;28;20026;-77
2022/05/20 11:01:32;;;;;;;6.10;3.38;;;;;;;;;;5012963;28;20222;-72
2022/05/20 11:04:05;;;;;;;4.07;2.97;;;;;;;;;;5012630;28;20033;-72
2022/05/20 11:06:40;;;;;;;8.30;3.38;;;;;;;;;;5012827;28;20022;-72
2022/05/20 11:09:07;;;;;;;5.90;3.00;;;;;;;;;;5012293;28;20109;-72
2022/05/20 11:11:52;;;;;;;6.25;3.22;;;;;;;;;;5012896;28;20105;-71
2022/05/20 11:14:18;;;;;;;6.50;3.22;;;;;;;;;;5012632;28;20121;-72
2022/05/20 11:16:56;;;;;;;4.55;3.67;;;;;;;;;;4994929;28;20496;-72
2022/05/20 11:19:25;;;;;;;2.95;2.70;;;;;;;;;;5012645;28;20444;-71
2022/05/20 11:22:00;;;;;;;5.47;2.70;;;;;;;;;;5012668;28;20026;-71
2022/05/20 11:24:35;;;;;;;3.05;2.75;;;;;;;;;;5012320;28;20087;-71
2022/05/20 11:27:20;;;;;;;10.55;3.00;;;;;;;;;;5012276;28;20026;-71
2022/05/20 11:30:05;;;;;;;3.10;2.28;;;;;;;;;;5012236;28;20394;-73
2022/05/20 11:32:46;;;;;;;6.43;2.92;;;;;;;;;;5012147;28;20057;-72
2022/05/20 11:35:12;;;;;;;;;;;;;;;;;;5012464;28;20484;-71
2022/05/20 11:37:38;;;;;;;4.32;2.63;;;;;;;;;;5011951;28;19909;-72
2022/05/20 11:40:26;;;;;;;10.07;3.30;;;;;;;;;;5011785;28;20073;-71
2022/05/20 11:43:11;;;;;;;4.45;2.85;;;;;;;;;;5012027;28;20041;-71
2022/05/20 11:45:56;;;;;;;6.68;2.72;;;;;;;;;;5012045;28;20018;-71
2022/05/20 11:48:25;;;;;;;2.53;2.08;;;;;;;;;;5011936;28;20113;-71
2022/05/20 11:51:10;;;;;;;3.13;2.08;;;;;;;;;;5011952;28;20024;-71
2022/05/20 11:53:43;;;;;;;2.05;1.90;;;;;;;;;;5011625;28;20110;-70
2022/05/20 11:56:14;;;;;;;4.10;2.45;;;;;;;;;;5011991;28;20452;-71
2022/05/20 11:58:44;;;;;;;4.10;2.25;;;;;;;;;;5014000;28;20028;-70
2022/05/20 12:01:10;;;;;;;3.70;2.60;;;;;;;;;;5011997;28;20038;-72
2022/05/20 12:06:26;;;;;;;2.40;2.20;;;;;;;;;;5013650;28;20036;-72
2022/05/20 12:08:57;;;;;;;3.38;2.40;;;;;;;;;;5014098;28;20026;-72
2022/05/20 12:11:23;;;;;;;6.07;2.50;;;;;;;;;;4998637;28;20048;-72
2022/05/20 12:14:05;;;;;;;2.50;2.20;;;;;;;;;;5013035;28;20030;-72
2022/05/20 12:16:31;;;;;;;6.07;2.90;;;;;;;;;;5011575;28;20029;-71
2022/05/20 12:24:49;;;;;;;2.45;2.25;;;;;;;;;;4912731;29;20036;-71
2022/05/20 12:27:22;;;;;;;6.05;2.10;;;;;;;;;;4991903;28;20488;-71
2022/05/20 12:29:57;;;;;;;6.57;2.85;;;;;;;;;;4993967;28;20496;-71
2022/05/20 12:32:31;;;;;;;3.53;1.83;;;;;;;;;;5011986;28;20391;-70
2022/05/20 12:35:09;;;;;;;6.60;2.30;;;;;;;;;;5011747;28;20053;-71
2022/05/20 12:37:40;;;;;;;4.32;2.40;;;;;;;;;;5011235;28;20105;-70
2022/05/20 12:40:16;;;;;;;5.38;3.10;;;;;;;;;;5011611;28;20037;-71
2022/05/20 12:42:46;;;;;;;9.13;3.60;;;;;;;;;;4993742;28;20022;-70
2022/05/20 12:45:12;;;;;;;5.55;2.80;;;;;;;;;;5011089;28;20060;-72
2022/05/20 12:47:38;;;;;;;5.85;3.38;;;;;;;;;;5011053;28;20453;-72
2022/05/20 12:50:06;;;;;;;4.68;2.08;;;;;;;;;;4993866;28;20409;-71
2022/05/20 12:52:34;;;;;;;4.03;2.05;;;;;;;;;;5011229;28;20092;-71
2022/05/20 12:55:15;;;;;;;3.20;2.30;;;;;;;;;;5010887;28;20088;-71
2022/05/20 12:58:07;;;;;;;5.47;2.20;;;;;;;;;;5003777;28;20030;-71
2022/05/20 13:00:35;;;;;;;4.88;2.40;;;;;;;;;;5007689;28;20062;-72
2022/05/20 13:03:03;;;;;;;1.90;1.75;;;;;;;;;;5011531;28;20037;-72
2022/05/20 13:05:50;;;;;;;5.50;2.30;;;;;;;;;;4998200;28;20101;-72
2022/05/20 13:08:17;;;;;;;1.98;1.77;;;;;;;;;;5014230;28;20034;-71
2022/05/20 13:10:43;;;;;;;3.92;2.05;;;;;;;;;;5014788;28;20054;-72
2022/05/20 13:13:14;;;;;;;3.08;1.80;;;;;;;;;;4997194;28;20030;-72
2022/05/20 13:15:41;;;;;;;3.92;2.35;;;;;;;;;;4997005;28;20064;-72
2022/05/20 13:18:13;;;;;;;2.35;1.90;;;;;;;;;;5014853;28;20044;-71
2022/05/20 13:20:38;;;;;;;;;;;;;;;;;;5015158;28;20215;-71
2022/05/20 13:23:06;;;;;;;4.78;2.30;;;;;;;;;;5015206;28;20421;-72
2022/05/20 13:25:32;;;;;;;5.43;1.95;;;;;;;;;;5015140;28;20057;-72
2022/05/20 13:28:01;;;;;;;2.05;1.85;;;;;;;;;;5014308;28;20030;-72
2022/05/20 13:30:30;;;;;;;4.15;2.20;;;;;;;;;;5014433;28;20108;-72
2022/05/20 13:33:07;;;;;;;3.22;2.53;;;;;;;;;;5014397;28;20058;-72
2022/05/20 13:35:40;;;;;;;3.10;2.30;;;;;;;;;;4996100;28;20038;-72
2022/05/20 13:38:06;;;;;;;2.70;2.50;;;;;;;;;;5013731;28;20119;-71
2022/05/20 13:40:34;;;;;;;3.28;2.33;;;;;;;;;;5014307;28;20125;-72
2022/05/20 13:43:00;;;;;;;6.25;2.42;;;;;;;;;;5013752;28;20476;-72
2022/05/20 13:51:29;;;;;;;2.90;2.42;;;;;;;;;;5005707;28;20065;-71
2022/05/20 13:54:00;;;;;;;3.55;2.08;;;;;;;;;;5013775;28;20112;-71
2022/05/20 13:56:30;;;;;;;3.97;1.83;;;;;;;;;;5014062;28;20137;-70
2022/05/20 13:58:56;;;;;;;5.40;2.45;;;;;;;;;;4995703;28;20460;-71
2022/05/20 14:01:22;;;;;;;4.78;2.30;;;;;;;;;;5013642;28;20469;-72
2022/05/20 14:03:49;;;;;;;4.32;2.47;;;;;;;;;;5025955;23;20115;-74
2022/05/20 14:06:17;;;;;;;3.00;2.08;;;;;;;;;;5015796;28;20396;-72
2022/05/20 14:08:58;;;;;;;3.78;2.00;;;;;;;;;;5032764;28;20048;-72
2022/05/20 14:11:39;;;;;;;5.38;2.55;;;;;;;;;;5033362;28;20364;-73
2022/05/20 14:14:07;;;;;;;3.85;2.00;;;;;;;;;;5033154;28;20032;-73
2022/05/20 14:16:37;;;;;;;5.80;2.60;;;;;;;;;;5032989;28;20024;-72
2022/05/20 14:19:09;;;;;;;5.38;2.40;;;;;;;;;;5033070;28;20029;-72
2022/05/20 14:21:39;;;;;;;9.30;2.53;;;;;;;;;;5033549;28;20049;-74
2022/05/20 14:24:13;;;;;;;3.78;2.22;;;;;;;;;;5033150;28;20036;-72
2022/05/20 14:26:44;;;;;;;3.40;2.05;;;;;;;;;;5033531;28;20113;-73
2022/05/20 14:29:29;;;;;;;3.97;2.45;;;;;;;;;;5033402;28;20040;-73
2022/05/20 14:31:57;;;;;;;5.10;2.00;;;;;;;;;;5033573;28;20118;-74
2022/05/20 14:34:23;;;;;;;3.03;2.40;;;;;;;;;;5033322;28;20025;-73
2022/05/20 14:36:50;;;;;;;4.15;2.22;;;;;;;;;;5033642;28;20031;-73
2022/05/20 14:39:20;;;;;;;2.65;2.33;;;;;;;;;;5022667;28;20141;-73
2022/05/20 14:41:56;;;;;;;2.90;2.30;;;;;;;;;;5033322;28;20673;-72
2022/05/20 14:44:22;;;;;;;7.15;2.40;;;;;;;;;;5032868;28;20083;-72
2022/05/20 14:47:15;;;;;;;2.40;1.80;;;;;;;;;;5032828;28;20398;-74
2022/05/20 14:49:55;;;;;;;6.30;2.22;;;;;;;;;;5033046;28;20559;-72
2022/05/20 14:52:25;;;;;;;7.45;2.10;;;;;;;;;;5033124;28;20112;-74
2022/05/20 14:54:57;;;;;;;4.45;2.50;;;;;;;;;;5033090;28;20033;-73
2022/05/20 14:57:34;;;;;;;3.55;1.95;;;;;;;;;;5032885;28;20021;-73
2022/05/20 15:00:09;;;;;;;5.15;2.70;;;;;;;;;;5032984;28;20561;-73
2022/05/20 15:02:35;;;;;;;4.93;2.45;;;;;;;;;;5032876;28;20030;-73
2022/05/20 15:05:01;;;;;;;6.72;2.40;;;;;;;;;;5032964;28;20114;-73
2022/05/20 15:07:28;;;;;;;4.32;2.53;;;;;;;;;;5033455;28;20029;-74
2022/05/20 15:09:54;;;;;;;5.25;2.42;;;;;;;;;;5032211;28;20340;-74
2022/05/20 15:12:24;;;;;;;2.63;2.15;;;;;;;;;;5032816;28;20550;-73
2022/05/20 15:14:50;;;;;;;7.70;2.53;;;;;;;;;;5032525;28;20021;-74
2022/05/20 15:17:17;;;;;;;4.30;2.20;;;;;;;;;;5032079;28;20483;-73
2022/05/20 15:19:44;;;;;;;5.80;2.70;;;;;;;;;;5032442;28;20096;-73
2022/05/20 15:22:11;;;;;;;2.67;2.15;;;;;;;;;;5032184;28;20036;-74
2022/05/20 15:24:44;;;;;;;5.15;2.42;;;;;;;;;;5032214;28;20032;-74
2022/05/20 15:27:16;;;;;;;6.38;2.55;;;;;;;;;;5031534;28;20021;-73
2022/05/20 15:29:42;;;;;;;3.00;2.17;;;;;;;;;;5032197;28;20025;-74
2022/05/20 15:34:54;;;;;;;3.08;2.15;;;;;;;;;;5032233;28;20458;-73
2022/05/20 15:37:27;;;;;;;3.30;2.33;;;;;;;;;;5031598;28;20029;-73